Back to Top

Language: 

My Weather Underground Personal Weather Station Historical Data with Graphs...

Delerius Weather Station Historical Data
Daily Summary for December 23, 2017 Units:  Metric    English   Both
« Previous Day
Next Day »
Daily Weekly Monthly Yearly Custom
  High: Low: Average:
Temperature: 10.2 °C 8.3 °C 9.1 °C
Dew Point: 8.3 °C 6.9 °C 7.5 °C
Humidity: 93 % 86 % 90 %
Wind Speed: 25.7 km/h 6.4 km/h 14.3 km/h
Wind Gust: 38.6 km/h - -
Wind:- - West
Pressure: 1033.4 hPa 1024.6 hPa -
Precipitation: 0 mm    
Historical Graphs
 
 
Tabular Data for December 23, 2017
Time Temperature Dew Point Pressure Wind Wind Speed Wind Gust Humidity Rainfall Rate (Hourly) solar Conditions
00:02 8.3 °C 7.2 °C 1033.4 hPa WNW 9.7 km/h 12.9 km/h 93 % 0 mm 0 W/m2
00:07 8.3 °C 7.2 °C 1033.1 hPa WNW 9.7 km/h 14.5 km/h 93 % 0 mm 0 W/m2
00:08 8.3 °C 7.2 °C 1033.4 hPa WNW 9.7 km/h 14.5 km/h 93 % 0 mm 0 W/m2
00:16 8.3 °C 7.2 °C 1033.4 hPa WNW 12.9 km/h 17.7 km/h 93 % 0 mm 0 W/m2
00:21 8.4 °C 7.3 °C 1033.1 hPa WNW 17.7 km/h 24.1 km/h 93 % 0 mm 0 W/m2
00:26 8.6 °C 7.6 °C 1033.1 hPa West 17.7 km/h 29 km/h 93 % 0 mm 0 W/m2
00:30 8.7 °C 7.6 °C 1033.1 hPa West 12.9 km/h 19.3 km/h 93 % 0 mm 0 W/m2
00:35 8.6 °C 7.4 °C 1033.1 hPa West 14.5 km/h 20.9 km/h 92 % 0 mm 0 W/m2
00:36 8.6 °C 7.4 °C 1033.1 hPa West 14.5 km/h 20.9 km/h 92 % 0 mm 0 W/m2
00:37 8.6 °C 7.4 °C 1033.1 hPa West 14.5 km/h 20.9 km/h 92 % 0 mm 0 W/m2
00:41 8.6 °C 7.6 °C 1033.1 hPa West 14.5 km/h 22.5 km/h 93 % 0 mm 0 W/m2
00:42 8.6 °C 7.6 °C 1033.1 hPa West 16.1 km/h 22.5 km/h 93 % 0 mm 0 W/m2
00:47 8.7 °C 7.6 °C 1033.1 hPa West 12.9 km/h 20.9 km/h 93 % 0 mm 0 W/m2
00:48 8.7 °C 7.6 °C 1033.1 hPa West 12.9 km/h 22.5 km/h 93 % 0 mm 0 W/m2
00:56 8.7 °C 7.6 °C 1032.7 hPa West 16.1 km/h 22.5 km/h 93 % 0 mm 0 W/m2
01:01 8.7 °C 7.6 °C 1032.7 hPa West 14.5 km/h 24.1 km/h 93 % 0 mm 0 W/m2
01:06 8.7 °C 7.6 °C 1032.7 hPa WSW 14.5 km/h 19.3 km/h 93 % 0 mm 0 W/m2
01:11 8.7 °C 7.6 °C 1032.7 hPa WSW 12.9 km/h 17.7 km/h 93 % 0 mm 0 W/m2
01:12 8.8 °C 7.7 °C 1032.7 hPa WSW 14.5 km/h 19.3 km/h 93 % 0 mm 0 W/m2
01:17 8.7 °C 7.6 °C 1032.7 hPa West 9.7 km/h 14.5 km/h 93 % 0 mm 0 W/m2
01:21 8.7 °C 7.6 °C 1032.7 hPa West 11.3 km/h 17.7 km/h 93 % 0 mm 0 W/m2
01:25 8.7 °C 7.6 °C 1032.7 hPa West 16.1 km/h 24.1 km/h 93 % 0 mm 0 W/m2
01:28 8.7 °C 7.6 °C 1032.4 hPa West 16.1 km/h 25.7 km/h 93 % 0 mm 0 W/m2
01:34 8.7 °C 7.6 °C 1032.4 hPa West 12.9 km/h 24.1 km/h 93 % 0 mm 0 W/m2
01:35 8.7 °C 7.6 °C 1032.4 hPa West 12.9 km/h 19.3 km/h 93 % 0 mm 0 W/m2
01:40 8.7 °C 7.6 °C 1032.4 hPa West 9.7 km/h 16.1 km/h 93 % 0 mm 0 W/m2
01:43 8.6 °C 7.6 °C 1032.4 hPa WNW 8 km/h 12.9 km/h 93 % 0 mm 0 W/m2
01:48 8.6 °C 7.4 °C 1032.4 hPa West 9.7 km/h 14.5 km/h 92 % 0 mm 0 W/m2
01:51 8.5 °C 7.3 °C 1032.4 hPa West 12.9 km/h 19.3 km/h 92 % 0 mm 0 W/m2
01:56 8.6 °C 7.6 °C 1032.4 hPa West 14.5 km/h 17.7 km/h 93 % 0 mm 0 W/m2
01:57 8.6 °C 7.6 °C 1032.4 hPa West 12.9 km/h 20.9 km/h 93 % 0 mm 0 W/m2
02:02 8.6 °C 7.6 °C 1032.7 hPa West 12.9 km/h 17.7 km/h 93 % 0 mm 0 W/m2
02:04 8.6 °C 7.6 °C 1032.4 hPa West 12.9 km/h 20.9 km/h 93 % 0 mm 0 W/m2
02:08 8.6 °C 7.6 °C 1032.4 hPa West 11.3 km/h 19.3 km/h 93 % 0 mm 0 W/m2
02:11 8.6 °C 7.6 °C 1032.4 hPa West 11.3 km/h 17.7 km/h 93 % 0 mm 0 W/m2
02:16 8.6 °C 7.4 °C 1032.4 hPa West 9.7 km/h 16.1 km/h 92 % 0 mm 0 W/m2
02:17 8.6 °C 7.4 °C 1032.4 hPa West 11.3 km/h 14.5 km/h 92 % 0 mm 0 W/m2
02:25 8.5 °C 7.3 °C 1032.4 hPa WNW 9.7 km/h 16.1 km/h 92 % 0 mm 0 W/m2
02:30 8.5 °C 7.4 °C 1032.1 hPa West 11.3 km/h 17.7 km/h 93 % 0 mm 0 W/m2
02:32 8.6 °C 7.6 °C 1032.1 hPa West 12.9 km/h 24.1 km/h 93 % 0 mm 0 W/m2
02:37 8.6 °C 7.6 °C 1032.1 hPa West 11.3 km/h 19.3 km/h 93 % 0 mm 0 W/m2
02:41 8.6 °C 7.6 °C 1032.1 hPa West 12.9 km/h 20.9 km/h 93 % 0 mm 0 W/m2
02:42 8.6 °C 7.6 °C 1032.1 hPa West 14.5 km/h 22.5 km/h 93 % 0 mm 0 W/m2
02:47 8.7 °C 7.6 °C 1032.1 hPa West 12.9 km/h 20.9 km/h 93 % 0 mm 0 W/m2
02:49 8.7 °C 7.6 °C 1032.1 hPa West 12.9 km/h 19.3 km/h 93 % 0 mm 0 W/m2
02:53 8.7 °C 7.6 °C 1032.1 hPa West 17.7 km/h 30.6 km/h 93 % 0 mm 0 W/m2
02:56 8.7 °C 7.5 °C 1032.1 hPa West 12.9 km/h 20.9 km/h 92 % 0 mm 0 W/m2
02:59 8.7 °C 7.5 °C 1032.1 hPa West 17.7 km/h 24.1 km/h 92 % 0 mm 0 W/m2
03:02 8.8 °C 7.6 °C 1032.1 hPa West 17.7 km/h 29 km/h 92 % 0 mm 0 W/m2
03:05 8.8 °C 7.6 °C 1032.1 hPa West 17.7 km/h 32.2 km/h 92 % 0 mm 0 W/m2
03:10 8.8 °C 7.6 °C 1032.1 hPa West 12.9 km/h 19.3 km/h 92 % 0 mm 0 W/m2
03:17 8.8 °C 7.6 °C 1031.7 hPa West 12.9 km/h 17.7 km/h 92 % 0 mm 0 W/m2
03:21 8.8 °C 7.6 °C 1031.7 hPa West 12.9 km/h 19.3 km/h 92 % 0 mm 0 W/m2
03:25 8.8 °C 7.6 °C 1031.7 hPa West 12.9 km/h 20.9 km/h 92 % 0 mm 0 W/m2
03:27 8.8 °C 7.6 °C 1031.7 hPa West 14.5 km/h 20.9 km/h 92 % 0 mm 0 W/m2
03:32 8.8 °C 7.7 °C 1031.7 hPa West 16.1 km/h 22.5 km/h 93 % 0 mm 0 W/m2
03:36 8.9 °C 7.8 °C 1031.7 hPa West 14.5 km/h 22.5 km/h 93 % 0 mm 0 W/m2
03:40 8.9 °C 7.8 °C 1031.7 hPa West 12.9 km/h 19.3 km/h 93 % 0 mm 0 W/m2
03:45 8.8 °C 7.6 °C 1031.7 hPa West 8 km/h 12.9 km/h 92 % 0 mm 0 W/m2
03:49 8.8 °C 7.6 °C 1031.7 hPa WNW 9.7 km/h 16.1 km/h 92 % 0 mm 0 W/m2
03:54 8.8 °C 7.6 °C 1031.7 hPa West 12.9 km/h 17.7 km/h 92 % 0 mm 0 W/m2
14:37 9.6 °C 7.4 °C 1027.3 hPa West 20.9 km/h 38.6 km/h 86 % 0 mm 79 W/m2
14:39 9.5 °C 7.3 °C 1027.3 hPa West 25.7 km/h 38.6 km/h 86 % 0 mm 74 W/m2
14:44 9.4 °C 7.2 °C 1027.3 hPa West 19.3 km/h 32.2 km/h 86 % 0 mm 63 W/m2
14:45 9.4 °C 7.2 °C 1027.3 hPa West 19.3 km/h 32.2 km/h 86 % 0 mm 63 W/m2
14:50 9.4 °C 7.3 °C 1027.7 hPa West 19.3 km/h 29 km/h 87 % 0 mm 56 W/m2
14:53 9.3 °C 7.2 °C 1027.3 hPa West 20.9 km/h 35.4 km/h 87 % 0 mm 39 W/m2
14:58 9.3 °C 7.2 °C 1027.7 hPa West 17.7 km/h 29 km/h 87 % 0 mm 39 W/m2
15:03 9.3 °C 7.2 °C 1027.7 hPa West 19.3 km/h 29 km/h 87 % 0 mm 30 W/m2
15:08 9.2 °C 7.2 °C 1027.7 hPa West 20.9 km/h 30.6 km/h 87 % 0 mm 28 W/m2
15:12 9.2 °C 7.2 °C 1027.3 hPa West 17.7 km/h 33.8 km/h 87 % 0 mm 26 W/m2
15:14 9.1 °C 7.1 °C 1027.3 hPa West 14.5 km/h 22.5 km/h 87 % 0 mm 25 W/m2
15:17 9.1 °C 7.1 °C 1027.3 hPa West 16.1 km/h 24.1 km/h 87 % 0 mm 23 W/m2
15:20 9 °C 6.9 °C 1027.3 hPa West 16.1 km/h 24.1 km/h 87 % 0 mm 21 W/m2
15:23 8.9 °C 7 °C 1027.3 hPa West 16.1 km/h 24.1 km/h 88 % 0 mm 18 W/m2
15:28 8.8 °C 6.9 °C 1027.7 hPa West 16.1 km/h 25.7 km/h 88 % 0 mm 14 W/m2
15:29 8.8 °C 6.9 °C 1027.7 hPa West 16.1 km/h 25.7 km/h 88 % 0 mm 14 W/m2
15:30 8.8 °C 6.9 °C 1027.7 hPa West 17.7 km/h 25.7 km/h 88 % 0 mm 14 W/m2
15:34 8.8 °C 6.9 °C 1027.7 hPa West 16.1 km/h 25.7 km/h 88 % 0 mm 12 W/m2
15:39 8.8 °C 6.9 °C 1027.7 hPa West 14.5 km/h 22.5 km/h 88 % 0 mm 9 W/m2
15:43 8.8 °C 7.1 °C 1027.7 hPa WSW 14.5 km/h 22.5 km/h 89 % 0 mm 7 W/m2
15:48 8.8 °C 7.1 °C 1027.7 hPa West 11.3 km/h 16.1 km/h 89 % 0 mm 5 W/m2
15:50 8.8 °C 7.1 °C 1028 hPa West 9.7 km/h 17.7 km/h 89 % 0 mm 5 W/m2
15:55 8.8 °C 7.1 °C 1027.7 hPa West 9.7 km/h 16.1 km/h 89 % 0 mm 0 W/m2
15:58 8.8 °C 7.1 °C 1027.7 hPa West 9.7 km/h 14.5 km/h 89 % 0 mm 0 W/m2
16:03 8.8 °C 7.1 °C 1028 hPa West 11.3 km/h 16.1 km/h 89 % 0 mm 0 W/m2
16:08 8.8 °C 7.1 °C 1027.7 hPa WSW 9.7 km/h 16.1 km/h 89 % 0 mm 0 W/m2
16:09 8.8 °C 7.1 °C 1027.7 hPa WSW 12.9 km/h 24.1 km/h 89 % 0 mm 0 W/m2
16:10 8.8 °C 7.1 °C 1027.7 hPa WSW 16.1 km/h 24.1 km/h 89 % 0 mm 0 W/m2
16:15 8.8 °C 7.1 °C 1027.3 hPa WSW 16.1 km/h 22.5 km/h 89 % 0 mm 0 W/m2
16:16 8.8 °C 7.1 °C 1027.3 hPa WSW 14.5 km/h 22.5 km/h 89 % 0 mm 0 W/m2
16:21 8.8 °C 7.1 °C 1027.3 hPa WSW 17.7 km/h 25.7 km/h 89 % 0 mm 0 W/m2
16:23 8.8 °C 7.1 °C 1027.3 hPa WSW 17.7 km/h 24.1 km/h 89 % 0 mm 0 W/m2
16:25 8.8 °C 7.1 °C 1027.3 hPa WSW 17.7 km/h 29 km/h 89 % 0 mm 0 W/m2
16:28 8.8 °C 7.1 °C 1027.3 hPa WSW 17.7 km/h 29 km/h 89 % 0 mm 0 W/m2
16:29 8.8 °C 7.1 °C 1027.3 hPa WSW 16.1 km/h 29 km/h 89 % 0 mm 0 W/m2
16:34 8.8 °C 7.1 °C 1027.3 hPa WSW 16.1 km/h 22.5 km/h 89 % 0 mm 0 W/m2
16:35 8.8 °C 7.1 °C 1027.3 hPa WSW 16.1 km/h 22.5 km/h 89 % 0 mm 0 W/m2
16:37 8.8 °C 7.1 °C 1027.3 hPa WSW 16.1 km/h 22.5 km/h 89 % 0 mm 0 W/m2
16:40 8.8 °C 7.1 °C 1027.3 hPa WSW 14.5 km/h 22.5 km/h 89 % 0 mm 0 W/m2
16:45 8.8 °C 7.1 °C 1027.3 hPa WSW 11.3 km/h 16.1 km/h 89 % 0 mm 0 W/m2
16:46 8.8 °C 7.1 °C 1027.3 hPa WSW 11.3 km/h 16.1 km/h 89 % 0 mm 0 W/m2
16:51 8.8 °C 7.1 °C 1027.3 hPa WSW 6.4 km/h 12.9 km/h 89 % 0 mm 0 W/m2
16:56 8.8 °C 7.1 °C 1027.3 hPa WSW 11.3 km/h 19.3 km/h 89 % 0 mm 0 W/m2
16:57 8.8 °C 7.1 °C 1027.3 hPa WSW 11.3 km/h 19.3 km/h 89 % 0 mm 0 W/m2
17:02 8.8 °C 7.2 °C 1027.3 hPa WSW 12.9 km/h 19.3 km/h 90 % 0 mm 0 W/m2
17:04 8.8 °C 7.2 °C 1027.3 hPa WSW 11.3 km/h 29 km/h 90 % 0 mm 0 W/m2
17:09 8.8 °C 7.2 °C 1027.3 hPa West 12.9 km/h 17.7 km/h 90 % 0 mm 0 W/m2
17:10 8.9 °C 7.3 °C 1027.3 hPa West 12.9 km/h 19.3 km/h 90 % 0 mm 0 W/m2
17:15 8.9 °C 7.2 °C 1027.3 hPa West 14.5 km/h 22.5 km/h 89 % 0 mm 0 W/m2
17:16 8.9 °C 7.3 °C 1027.3 hPa West 16.1 km/h 22.5 km/h 90 % 0 mm 0 W/m2
17:20 8.9 °C 7.2 °C 1027.3 hPa WSW 11.3 km/h 19.3 km/h 89 % 0 mm 0 W/m2
17:22 8.9 °C 7.2 °C 1027.3 hPa WSW 8 km/h 19.3 km/h 89 % 0 mm 0 W/m2
17:27 9 °C 7.3 °C 1027 hPa WSW 11.3 km/h 17.7 km/h 89 % 0 mm 0 W/m2
17:32 9.1 °C 7.4 °C 1027 hPa WSW 16.1 km/h 25.7 km/h 89 % 0 mm 0 W/m2
17:34 9.1 °C 7.4 °C 1027 hPa WSW 17.7 km/h 30.6 km/h 89 % 0 mm 0 W/m2
17:39 9.3 °C 7.6 °C 1027 hPa WSW 16.1 km/h 24.1 km/h 89 % 0 mm 0 W/m2
17:40 9.3 °C 7.6 °C 1027 hPa WSW 12.9 km/h 20.9 km/h 89 % 0 mm 0 W/m2
17:45 9.3 °C 7.6 °C 1027 hPa WSW 6.4 km/h 12.9 km/h 89 % 0 mm 0 W/m2
17:46 9.3 °C 7.6 °C 1027 hPa WSW 6.4 km/h 12.9 km/h 89 % 0 mm 0 W/m2
17:51 9.3 °C 7.6 °C 1027 hPa WSW 9.7 km/h 14.5 km/h 89 % 0 mm 0 W/m2
17:52 9.3 °C 7.6 °C 1027 hPa WSW 9.7 km/h 16.1 km/h 89 % 0 mm 0 W/m2
17:57 9.3 °C 7.6 °C 1027 hPa WSW 12.9 km/h 22.5 km/h 89 % 0 mm 0 W/m2
17:59 9.3 °C 7.6 °C 1027 hPa WSW 14.5 km/h 24.1 km/h 89 % 0 mm 0 W/m2
18:04 9.3 °C 7.6 °C 1027 hPa WSW 12.9 km/h 19.3 km/h 89 % 0 mm 0 W/m2
18:06 9.2 °C 7.5 °C 1026.6 hPa WSW 14.5 km/h 25.7 km/h 89 % 0 mm 0 W/m2
18:11 9.2 °C 7.5 °C 1026.6 hPa WSW 12.9 km/h 20.9 km/h 89 % 0 mm 0 W/m2
18:12 9.2 °C 7.5 °C 1026.6 hPa WSW 12.9 km/h 20.9 km/h 89 % 0 mm 0 W/m2
18:15 9.2 °C 7.5 °C 1026.6 hPa WSW 12.9 km/h 19.3 km/h 89 % 0 mm 0 W/m2
18:17 9.2 °C 7.5 °C 1026.6 hPa WSW 16.1 km/h 25.7 km/h 89 % 0 mm 0 W/m2
18:22 9.2 °C 7.5 °C 1026.6 hPa WSW 16.1 km/h 30.6 km/h 89 % 0 mm 0 W/m2
18:23 9.2 °C 7.5 °C 1026.6 hPa WSW 16.1 km/h 22.5 km/h 89 % 0 mm 0 W/m2
18:27 9.3 °C 7.6 °C 1026.6 hPa WSW 16.1 km/h 24.1 km/h 89 % 0 mm 0 W/m2
18:31 9.3 °C 7.6 °C 1026.6 hPa WSW 14.5 km/h 24.1 km/h 89 % 0 mm 0 W/m2
18:34 9.3 °C 7.6 °C 1026.3 hPa WSW 14.5 km/h 24.1 km/h 89 % 0 mm 0 W/m2
18:40 9.3 °C 7.6 °C 1026.3 hPa WSW 19.3 km/h 29 km/h 89 % 0 mm 0 W/m2
18:42 9.3 °C 7.6 °C 1026.3 hPa WSW 19.3 km/h 29 km/h 89 % 0 mm 0 W/m2
18:47 9.3 °C 7.6 °C 1026.3 hPa WSW 16.1 km/h 24.1 km/h 89 % 0 mm 0 W/m2
18:52 9.2 °C 7.5 °C 1026.6 hPa West 16.1 km/h 25.7 km/h 89 % 0 mm 0 W/m2
18:57 9.2 °C 7.5 °C 1026.3 hPa WSW 16.1 km/h 22.5 km/h 89 % 0 mm 0 W/m2
19:02 9.2 °C 7.5 °C 1026.3 hPa WSW 14.5 km/h 22.5 km/h 89 % 0 mm 0 W/m2
19:07 9.2 °C 7.5 °C 1026.6 hPa WSW 14.5 km/h 22.5 km/h 89 % 0 mm 0 W/m2
19:15 9.2 °C 7.5 °C 1026.6 hPa WSW 14.5 km/h 20.9 km/h 89 % 0 mm 0 W/m2
19:23 9.1 °C 7.4 °C 1026.6 hPa WSW 12.9 km/h 20.9 km/h 89 % 0 mm 0 W/m2
19:26 9.1 °C 7.4 °C 1026.6 hPa WSW 14.5 km/h 22.5 km/h 89 % 0 mm 0 W/m2
19:29 9.1 °C 7.4 °C 1026.6 hPa West 11.3 km/h 17.7 km/h 89 % 0 mm 0 W/m2
19:33 9.1 °C 7.4 °C 1026.6 hPa WSW 9.7 km/h 20.9 km/h 89 % 0 mm 0 W/m2
19:35 9.1 °C 7.4 °C 1026.6 hPa WSW 14.5 km/h 20.9 km/h 89 % 0 mm 0 W/m2
19:41 9.1 °C 7.6 °C 1026.6 hPa West 14.5 km/h 24.1 km/h 90 % 0 mm 0 W/m2
19:46 9.1 °C 7.4 °C 1026.6 hPa West 11.3 km/h 16.1 km/h 89 % 0 mm 0 W/m2
19:51 9 °C 7.4 °C 1026.6 hPa West 9.7 km/h 22.5 km/h 90 % 0 mm 0 W/m2
19:52 9 °C 7.4 °C 1026.6 hPa West 11.3 km/h 22.5 km/h 90 % 0 mm 0 W/m2
19:54 9 °C 7.4 °C 1026.6 hPa West 9.7 km/h 17.7 km/h 90 % 0 mm 0 W/m2
19:59 9 °C 7.4 °C 1026.6 hPa WSW 12.9 km/h 22.5 km/h 90 % 0 mm 0 W/m2
20:06 9 °C 7.4 °C 1026.6 hPa West 11.3 km/h 17.7 km/h 90 % 0 mm 0 W/m2
20:09 9 °C 7.4 °C 1026.6 hPa WSW 8 km/h 16.1 km/h 90 % 0 mm 0 W/m2
20:14 9 °C 7.4 °C 1026.6 hPa WSW 11.3 km/h 17.7 km/h 90 % 0 mm 0 W/m2
20:15 9 °C 7.4 °C 1026.6 hPa WSW 11.3 km/h 17.7 km/h 90 % 0 mm 0 W/m2
20:20 8.9 °C 7.2 °C 1026.6 hPa WSW 12.9 km/h 22.5 km/h 89 % 0 mm 0 W/m2
20:25 9 °C 7.3 °C 1026.3 hPa SW 16.1 km/h 24.1 km/h 89 % 0 mm 0 W/m2
20:27 9 °C 7.4 °C 1026.3 hPa WSW 16.1 km/h 20.9 km/h 90 % 0 mm 0 W/m2
20:32 9 °C 7.3 °C 1026.6 hPa WSW 14.5 km/h 25.7 km/h 89 % 0 mm 0 W/m2
20:37 9.1 °C 7.4 °C 1026.6 hPa WSW 20.9 km/h 30.6 km/h 89 % 0 mm 0 W/m2
20:41 9.1 °C 7.4 °C 1026.3 hPa WSW 16.1 km/h 24.1 km/h 89 % 0 mm 0 W/m2
20:46 9.1 °C 7.4 °C 1026.3 hPa WSW 12.9 km/h 24.1 km/h 89 % 0 mm 0 W/m2
20:47 9.1 °C 7.4 °C 1026.3 hPa WSW 12.9 km/h 24.1 km/h 89 % 0 mm 0 W/m2
20:49 9.1 °C 7.4 °C 1026.3 hPa WSW 11.3 km/h 17.7 km/h 89 % 0 mm 0 W/m2
20:54 9.2 °C 7.5 °C 1026.3 hPa WSW 14.5 km/h 20.9 km/h 89 % 0 mm 0 W/m2
20:55 9.2 °C 7.5 °C 1026.3 hPa WSW 14.5 km/h 20.9 km/h 89 % 0 mm 0 W/m2
21:03 9.2 °C 7.3 °C 1026.3 hPa West 19.3 km/h 29 km/h 88 % 0 mm 0 W/m2
21:07 9.3 °C 7.4 °C 1026.3 hPa WSW 14.5 km/h 20.9 km/h 88 % 0 mm 0 W/m2
21:10 9.3 °C 7.4 °C 1026.3 hPa West 12.9 km/h 17.7 km/h 88 % 0 mm 0 W/m2
21:15 9.3 °C 7.4 °C 1026.3 hPa West 11.3 km/h 16.1 km/h 88 % 0 mm 0 W/m2
21:20 9.3 °C 7.4 °C 1026.3 hPa West 11.3 km/h 19.3 km/h 88 % 0 mm 0 W/m2
21:22 9.3 °C 7.4 °C 1026.3 hPa West 9.7 km/h 20.9 km/h 88 % 0 mm 0 W/m2
21:27 9.3 °C 7.4 °C 1026.3 hPa West 11.3 km/h 17.7 km/h 88 % 0 mm 0 W/m2
21:28 9.3 °C 7.4 °C 1026.3 hPa West 11.3 km/h 17.7 km/h 88 % 0 mm 0 W/m2
21:33 9.4 °C 7.5 °C 1026.3 hPa WSW 8 km/h 12.9 km/h 88 % 0 mm 0 W/m2
21:35 9.4 °C 7.5 °C 1026.3 hPa WSW 8 km/h 14.5 km/h 88 % 0 mm 0 W/m2
21:40 9.4 °C 7.5 °C 1026.3 hPa West 14.5 km/h 22.5 km/h 88 % 0 mm 0 W/m2
21:45 9.4 °C 7.5 °C 1026.3 hPa West 14.5 km/h 25.7 km/h 88 % 0 mm 0 W/m2
21:46 9.4 °C 7.5 °C 1026.3 hPa West 16.1 km/h 29 km/h 88 % 0 mm 0 W/m2
21:51 9.4 °C 7.5 °C 1026.3 hPa West 19.3 km/h 30.6 km/h 88 % 0 mm 0 W/m2
21:54 9.5 °C 7.6 °C 1026.3 hPa West 17.7 km/h 29 km/h 88 % 0 mm 0 W/m2
21:59 9.5 °C 7.6 °C 1026.3 hPa West 17.7 km/h 32.2 km/h 88 % 0 mm 0 W/m2
22:01 9.5 °C 7.6 °C 1026 hPa West 20.9 km/h 32.2 km/h 88 % 0 mm 0 W/m2
22:03 9.5 °C 7.6 °C 1026 hPa West 19.3 km/h 32.2 km/h 88 % 0 mm 0 W/m2
22:08 9.5 °C 7.6 °C 1026 hPa West 20.9 km/h 35.4 km/h 88 % 0 mm 0 W/m2
22:11 9.5 °C 7.6 °C 1026 hPa West 17.7 km/h 29 km/h 88 % 0 mm 0 W/m2
22:12 9.5 °C 7.6 °C 1026 hPa West 17.7 km/h 29 km/h 88 % 0 mm 0 W/m2
22:16 9.5 °C 7.6 °C 1026 hPa WSW 22.5 km/h 35.4 km/h 88 % 0 mm 0 W/m2
22:21 9.6 °C 7.7 °C 1026 hPa West 12.9 km/h 22.5 km/h 88 % 0 mm 0 W/m2
22:22 9.6 °C 7.7 °C 1026 hPa West 12.9 km/h 22.5 km/h 88 % 0 mm 0 W/m2
22:27 9.6 °C 7.7 °C 1026 hPa West 17.7 km/h 29 km/h 88 % 0 mm 0 W/m2
22:32 9.6 °C 7.7 °C 1026 hPa WSW 12.9 km/h 20.9 km/h 88 % 0 mm 0 W/m2
22:33 9.6 °C 7.7 °C 1026 hPa WSW 12.9 km/h 20.9 km/h 88 % 0 mm 0 W/m2
22:38 9.6 °C 7.7 °C 1025.6 hPa WSW 16.1 km/h 24.1 km/h 88 % 0 mm 0 W/m2
22:43 9.7 °C 7.8 °C 1025.6 hPa West 17.7 km/h 22.5 km/h 88 % 0 mm 0 W/m2
22:44 9.7 °C 7.8 °C 1025.6 hPa West 16.1 km/h 22.5 km/h 88 % 0 mm 0 W/m2
22:45 9.7 °C 7.8 °C 1025.6 hPa West 16.1 km/h 24.1 km/h 88 % 0 mm 0 W/m2
22:50 9.7 °C 7.8 °C 1025.3 hPa West 12.9 km/h 19.3 km/h 88 % 0 mm 0 W/m2
22:51 9.7 °C 7.8 °C 1025.3 hPa West 14.5 km/h 20.9 km/h 88 % 0 mm 0 W/m2
22:54 9.7 °C 7.8 °C 1025.3 hPa WSW 17.7 km/h 25.7 km/h 88 % 0 mm 0 W/m2
22:59 9.7 °C 7.8 °C 1025.3 hPa West 14.5 km/h 20.9 km/h 88 % 0 mm 0 W/m2
23:04 9.8 °C 7.9 °C 1025.3 hPa West 16.1 km/h 25.7 km/h 88 % 0 mm 0 W/m2
23:05 9.8 °C 7.9 °C 1025.3 hPa West 16.1 km/h 25.7 km/h 88 % 0 mm 0 W/m2
23:10 9.8 °C 7.9 °C 1025.3 hPa West 14.5 km/h 22.5 km/h 88 % 0 mm 0 W/m2
23:15 9.8 °C 7.9 °C 1025.3 hPa West 12.9 km/h 22.5 km/h 88 % 0 mm 0 W/m2
23:20 9.9 °C 8 °C 1025.3 hPa West 16.1 km/h 20.9 km/h 88 % 0 mm 0 W/m2
23:21 9.8 °C 7.9 °C 1025.3 hPa West 14.5 km/h 20.9 km/h 88 % 0 mm 0 W/m2
23:26 9.9 °C 8 °C 1024.9 hPa West 12.9 km/h 19.3 km/h 88 % 0 mm 0 W/m2
23:27 9.9 °C 8 °C 1024.9 hPa West 11.3 km/h 19.3 km/h 88 % 0 mm 0 W/m2
23:32 9.9 °C 8 °C 1024.9 hPa West 14.5 km/h 24.1 km/h 88 % 0 mm 0 W/m2
23:33 9.9 °C 8 °C 1024.9 hPa West 16.1 km/h 25.7 km/h 88 % 0 mm 0 W/m2
23:38 10 °C 8.1 °C 1024.9 hPa West 16.1 km/h 29 km/h 88 % 0 mm 0 W/m2
23:39 10.1 °C 8.2 °C 1024.9 hPa West 17.7 km/h 29 km/h 88 % 0 mm 0 W/m2
23:43 10.1 °C 8.2 °C 1024.9 hPa West 16.1 km/h 29 km/h 88 % 0 mm 0 W/m2
23:48 10.1 °C 8.2 °C 1024.9 hPa West 25.7 km/h 38.6 km/h 88 % 0 mm 0 W/m2
23:50 10.1 °C 8.2 °C 1024.9 hPa West 24.1 km/h 38.6 km/h 88 % 0 mm 0 W/m2
23:52 10.2 °C 8.3 °C 1024.9 hPa West 14.5 km/h 24.1 km/h 88 % 0 mm 0 W/m2
23:57 10.2 °C 8.3 °C 1024.9 hPa West 19.3 km/h 25.7 km/h 88 % 0 mm 0 W/m2
23:59 10.2 °C 8.1 °C 1024.6 hPa West 14.5 km/h 24.1 km/h 87 % 0 mm 0 W/m2
Delerius-Weather
Compliments of Weather Underground - 2 mb

Data updates at regular intervals.